Time;durP1;ratioP1;P1;durP2;ratioP2;P2;SDS_P1;SDS_P2;PMS_P1;PMS_P2;Temp;Humidity;BMP_temperature;BMP_pressure;BME280_temperature;BME280_humidity;BME280_pressure;Samples;Min_cycle;Max_cycle;Signal;HPM_P1;HPM_P2
2023/01/09 00:15:01;;;;;;;4.40;4.00;;;;;;;-10.26;100.00;101941.16;31176544;28;20095;-76
2023/01/09 00:30:04;;;;;;;3.40;3.20;;;;;;;-10.36;100.00;101923.38;31172552;28;20502;-77
2023/01/09 00:45:17;;;;;;;7.43;4.00;;;;;;;-10.51;100.00;101900.25;31177196;28;20114;-76
2023/01/09 01:00:19;;;;;;;4.93;4.53;;;;;;;-10.58;100.00;101872.53;31163388;28;20053;-75
2023/01/09 01:15:21;;;;;;;6.10;4.23;;;;;;;-10.45;100.00;101851.28;31160697;28;20139;-76
2023/01/09 01:30:23;;;;;;;5.43;3.50;;;;;;;-10.39;100.00;101829.34;31175356;28;20057;-77
2023/01/09 01:45:27;;;;;;;6.90;5.83;;;;;;;-10.43;100.00;101830.84;31199044;28;20506;-75
2023/01/09 02:00:34;;;;;;;4.80;4.40;;;;;;;-10.70;100.00;101813.03;31167762;28;20103;-76
2023/01/09 02:15:56;;;;;;;4.50;4.10;;;;;;;-10.56;100.00;101813.53;31153097;28;20104;-76
2023/01/09 02:31:18;;;;;;;3.73;3.50;;;;;;;-10.42;100.00;101808.81;31162161;28;20056;-76
2023/01/09 02:46:21;;;;;;;4.97;4.10;;;;;;;-10.18;100.00;101786.59;31174895;28;20383;-77
2023/01/09 03:02:16;;;;;;;6.67;5.27;;;;;;;-10.04;100.00;101782.59;31152202;28;20277;-76
2023/01/09 03:17:27;;;;;;;3.23;2.97;;;;;;;-10.25;100.00;101780.72;31106572;28;20345;-76
2023/01/09 03:32:29;;;;;;;4.13;3.73;;;;;;;-10.37;100.00;101788.66;31162800;28;20057;-76
2023/01/09 03:47:31;;;;;;;5.13;4.60;;;;;;;-10.44;100.00;101788.03;31166109;28;20062;-76
2023/01/09 04:02:33;;;;;;;6.03;4.80;;;;;;;-10.45;100.00;101767.25;31146244;28;20089;-76
2023/01/09 04:17:35;;;;;;;4.17;3.83;;;;;;;-10.41;100.00;101776.25;31167985;28;20076;-76
2023/01/09 04:32:36;;;;;;;4.53;4.23;;;;;;;-10.33;100.00;101786.34;31180952;28;20068;-76
2023/01/09 04:47:38;;;;;;;6.33;4.27;;;;;;;-10.45;100.00;101804.03;31170946;28;20462;-76
2023/01/09 05:02:41;;;;;;;6.97;5.40;;;;;;;-10.51;100.00;101799.72;31177275;28;20049;-76
2023/01/09 05:17:43;;;;;;;3.33;3.03;;;;;;;-10.70;100.00;101815.66;31199406;28;20041;-77
2023/01/09 05:32:45;;;;;;;4.73;4.33;;;;;;;-10.47;100.00;101817.38;31147836;28;20066;-76
2023/01/09 05:47:46;;;;;;;4.57;3.93;;;;;;;-10.39;100.00;101795.19;31152274;28;20156;-77
2023/01/09 06:02:49;;;;;;;6.50;5.37;;;;;;;-10.12;100.00;101790.84;31146925;28;20513;-77
2023/01/09 06:17:51;;;;;;;7.70;5.47;;;;;;;-7.44;100.00;101776.16;31232431;28;20145;-76
2023/01/09 08:35:29;;;;;;;6.43;3.40;;;;;;;1.11;65.06;101747.06;31278481;28;20400;-84
2023/01/09 08:50:32;;;;;;;6.03;2.97;;;;;;;2.05;68.89;101728.16;31215977;28;20045;-80
2023/01/09 09:05:34;;;;;;;9.47;4.00;;;;;;;1.65;58.91;101713.50;31224359;28;20050;-82
2023/01/09 09:20:37;;;;;;;5.97;3.50;;;;;;;0.54;56.84;101696.34;31226180;28;20054;-85
2023/01/09 09:35:46;;;;;;;2.90;2.47;;;;;;;0.00;55.07;101677.78;31133225;28;20057;-82
2023/01/09 09:51:07;;;;;;;2.47;2.27;;;;;;;1.22;52.79;101652.00;31160687;28;20058;-87
2023/01/09 10:06:35;;;;;;;3.00;2.43;;;;;;;1.78;53.96;101647.44;31147157;28;20054;-79
2023/01/09 10:22:00;;;;;;;4.07;1.30;;;;;;;1.60;50.16;101607.38;31104983;28;20510;-82
2023/01/09 10:37:14;;;;;;;4.50;2.10;;;;;;;3.00;49.28;101593.50;31120412;28;20052;-88
2023/01/09 10:52:19;;;;;;;40.43;13.57;;;;;;;3.73;49.29;101590.94;31103304;28;20128;-78
2023/01/09 11:07:25;;;;;;;2.23;1.97;;;;;;;3.49;51.12;101600.88;31110240;28;20046;-79
2023/01/09 11:22:27;;;;;;;6.00;2.17;;;;;;;3.91;55.14;101588.81;31108053;28;20499;-80
2023/01/09 11:37:31;;;;;;;5.00;2.27;;;;;;;3.92;51.14;101574.25;31112935;28;20058;-79
2023/01/09 11:52:33;;;;;;;3.57;1.67;;;;;;;3.88;50.75;101570.66;31107287;28;20116;-75
2023/01/09 12:07:37;;;;;;;3.90;1.53;;;;;;;4.54;50.65;101574.91;31087149;28;20096;-77
2023/01/09 12:23:04;;;;;;;8.27;3.87;;;;;;;6.40;47.38;101552.94;31127152;28;20066;-89
2023/01/09 12:38:24;;;;;;;3.47;1.80;;;;;;;5.72;46.16;101576.81;31099721;28;20056;-83
2023/01/09 12:53:33;;;;;;;4.17;2.17;;;;;;;3.26;54.34;101603.19;31121306;28;20046;-84
2023/01/09 16:38:51;;;;;;;11.07;5.37;;;;;;;-3.18;65.15;101617.69;31659768;27;20385;-77
2023/01/09 16:53:54;;;;;;;4.33;3.50;;;;;;;-3.55;66.95;101607.09;31629086;28;20082;-78
2023/01/09 17:08:56;;;;;;;7.80;4.40;;;;;;;-3.92;66.53;101621.09;31585599;28;20084;-76
2023/01/09 17:39:19;;;;;;;6.43;4.10;;;;;;;-4.42;69.99;101623.22;31465668;28;20114;-78
2023/01/09 17:54:21;;;;;;;7.13;4.40;;;;;;;-4.76;70.09;101622.50;31509354;28;20105;-80
2023/01/09 18:09:23;;;;;;;9.40;4.30;;;;;;;-5.05;74.88;101603.91;31482599;28;20502;-78
2023/01/09 18:24:25;;;;;;;6.10;3.53;;;;;;;-5.40;71.99;101634.84;31478730;28;20114;-77
2023/01/09 18:39:27;;;;;;;4.20;3.33;;;;;;;-5.61;74.10;101609.56;31443723;28;20094;-77
2023/01/09 18:54:30;;;;;;;3.40;3.10;;;;;;;-5.90;74.08;101575.09;31499919;28;20056;-76
2023/01/09 19:09:31;;;;;;;2.83;2.43;;;;;;;-6.09;74.74;101572.28;31446291;28;20402;-77
2023/01/09 19:49:46;;;;;;;10.93;4.37;;;;;;;-6.61;75.11;101510.09;31796667;27;20442;-79
2023/01/09 20:04:49;;;;;;;5.27;4.77;;;;;;;-6.75;76.56;101524.94;31684250;28;20051;-79
2023/01/09 20:19:50;;;;;;;7.33;3.83;;;;;;;-6.79;78.18;101476.34;31699473;28;20446;-77
2023/01/09 20:34:52;;;;;;;6.17;3.77;;;;;;;-6.69;78.18;101496.66;31692605;28;20051;-76
2023/01/09 20:49:54;;;;;;;3.60;3.27;;;;;;;-6.62;78.34;101513.81;31612363;28;20063;-81
2023/01/09 21:04:57;;;;;;;2.30;2.20;;;;;;;-6.50;78.06;101525.94;31585112;28;20466;-77
2023/01/09 21:19:59;;;;;;;2.90;2.70;;;;;;;-6.57;77.29;101527.00;31604937;28;20389;-78
2023/01/09 21:35:04;;;;;;;3.87;3.60;;;;;;;-6.59;77.09;101521.19;31589594;28;20117;-78
2023/01/09 21:50:07;;;;;;;6.63;3.83;;;;;;;-6.81;77.95;101525.19;31582593;28;20047;-76
2023/01/09 22:05:10;;;;;;;8.50;5.73;;;;;;;-7.01;79.33;101523.41;31580002;28;20052;-77
